sensor_id;sensor_type;location;lat;lon;timestamp;temperature;humidity
62581;DHT22;48640;48.770;9.148;2023-06-04T00:02:10;17.30;60.30
62581;DHT22;48640;48.770;9.148;2023-06-04T00:04:37;17.30;61.00
62581;DHT22;48640;48.770;9.148;2023-06-04T00:07:04;17.20;61.10
62581;DHT22;48640;48.770;9.148;2023-06-04T00:09:32;17.20;61.40
62581;DHT22;48640;48.770;9.148;2023-06-04T00:11:59;17.20;61.10
62581;DHT22;48640;48.770;9.148;2023-06-04T00:14:26;17.10;61.60
62581;DHT22;48640;48.770;9.148;2023-06-04T00:16:53;17.10;62.10
62581;DHT22;48640;48.770;9.148;2023-06-04T00:19:20;17.10;62.30
62581;DHT22;48640;48.770;9.148;2023-06-04T00:21:46;17.10;62.80
62581;DHT22;48640;48.770;9.148;2023-06-04T00:24:13;17.00;62.90
62581;DHT22;48640;48.770;9.148;2023-06-04T00:26:42;17.00;62.90
62581;DHT22;48640;48.770;9.148;2023-06-04T00:29:08;17.00;62.90
62581;DHT22;48640;48.770;9.148;2023-06-04T00:31:37;17.20;62.80
62581;DHT22;48640;48.770;9.148;2023-06-04T00:34:04;17.00;62.70
62581;DHT22;48640;48.770;9.148;2023-06-04T00:36:31;17.00;62.30
62581;DHT22;48640;48.770;9.148;2023-06-04T00:38:58;17.00;62.00
62581;DHT22;48640;48.770;9.148;2023-06-04T00:41:25;16.90;62.50
62581;DHT22;48640;48.770;9.148;2023-06-04T00:43:53;16.90;62.90
62581;DHT22;48640;48.770;9.148;2023-06-04T00:46:23;16.90;63.40
62581;DHT22;48640;48.770;9.148;2023-06-04T00:48:51;16.80;63.90
62581;DHT22;48640;48.770;9.148;2023-06-04T00:51:18;16.70;63.50
62581;DHT22;48640;48.770;9.148;2023-06-04T00:53:45;16.70;63.80
62581;DHT22;48640;48.770;9.148;2023-06-04T00:56:13;16.70;63.50
62581;DHT22;48640;48.770;9.148;2023-06-04T00:58:40;16.70;63.60
62581;DHT22;48640;48.770;9.148;2023-06-04T01:01:15;16.70;63.50
62581;DHT22;48640;48.770;9.148;2023-06-04T01:03:47;16.70;63.30
62581;DHT22;48640;48.770;9.148;2023-06-04T01:06:20;16.60;63.40
62581;DHT22;48640;48.770;9.148;2023-06-04T01:08:49;16.50;63.80
62581;DHT22;48640;48.770;9.148;2023-06-04T01:11:29;16.50;64.10
62581;DHT22;48640;48.770;9.148;2023-06-04T01:13:56;16.50;64.30
62581;DHT22;48640;48.770;9.148;2023-06-04T01:16:25;16.50;64.80
62581;DHT22;48640;48.770;9.148;2023-06-04T01:18:56;16.40;65.00
62581;DHT22;48640;48.770;9.148;2023-06-04T01:21:26;16.40;65.30
62581;DHT22;48640;48.770;9.148;2023-06-04T01:23:57;16.40;64.40
62581;DHT22;48640;48.770;9.148;2023-06-04T01:26:27;16.30;64.10
62581;DHT22;48640;48.770;9.148;2023-06-04T01:28:55;16.40;64.00
62581;DHT22;48640;48.770;9.148;2023-06-04T01:31:24;16.20;64.50
62581;DHT22;48640;48.770;9.148;2023-06-04T01:33:52;16.20;65.00
62581;DHT22;48640;48.770;9.148;2023-06-04T01:36:19;16.30;65.10
62581;DHT22;48640;48.770;9.148;2023-06-04T01:38:46;16.20;65.20
62581;DHT22;48640;48.770;9.148;2023-06-04T01:41:12;16.20;64.70
62581;DHT22;48640;48.770;9.148;2023-06-04T01:43:39;16.10;65.00
62581;DHT22;48640;48.770;9.148;2023-06-04T01:46:06;16.10;65.30
62581;DHT22;48640;48.770;9.148;2023-06-04T01:48:34;16.10;65.80
62581;DHT22;48640;48.770;9.148;2023-06-04T01:51:02;16.10;65.00
62581;DHT22;48640;48.770;9.148;2023-06-04T01:53:29;16.00;65.30
62581;DHT22;48640;48.770;9.148;2023-06-04T01:55:56;15.90;65.80
62581;DHT22;48640;48.770;9.148;2023-06-04T01:58:24;15.90;65.80
62581;DHT22;48640;48.770;9.148;2023-06-04T02:00:52;15.90;65.80
62581;DHT22;48640;48.770;9.148;2023-06-04T02:03:20;16.00;66.10
62581;DHT22;48640;48.770;9.148;2023-06-04T02:05:49;15.90;66.00
62581;DHT22;48640;48.770;9.148;2023-06-04T02:08:16;15.80;66.30
62581;DHT22;48640;48.770;9.148;2023-06-04T02:10:45;15.80;66.50
62581;DHT22;48640;48.770;9.148;2023-06-04T02:13:12;15.80;66.30
62581;DHT22;48640;48.770;9.148;2023-06-04T02:15:39;15.70;66.30
62581;DHT22;48640;48.770;9.148;2023-06-04T02:18:14;15.80;66.30
62581;DHT22;48640;48.770;9.148;2023-06-04T02:20:42;15.80;66.30
62581;DHT22;48640;48.770;9.148;2023-06-04T02:23:11;15.70;66.00
62581;DHT22;48640;48.770;9.148;2023-06-04T02:25:38;15.80;66.00
62581;DHT22;48640;48.770;9.148;2023-06-04T02:28:05;15.70;66.40
62581;DHT22;48640;48.770;9.148;2023-06-04T02:30:32;15.70;66.40
62581;DHT22;48640;48.770;9.148;2023-06-04T02:32:59;15.70;66.80
62581;DHT22;48640;48.770;9.148;2023-06-04T02:35:27;15.80;65.80
62581;DHT22;48640;48.770;9.148;2023-06-04T02:37:54;15.70;66.30
62581;DHT22;48640;48.770;9.148;2023-06-04T02:40:23;15.70;66.10
62581;DHT22;48640;48.770;9.148;2023-06-04T02:42:50;15.70;67.30
62581;DHT22;48640;48.770;9.148;2023-06-04T02:45:17;15.80;66.30
62581;DHT22;48640;48.770;9.148;2023-06-04T02:47:44;15.60;65.40
62581;DHT22;48640;48.770;9.148;2023-06-04T02:50:12;15.50;65.70
62581;DHT22;48640;48.770;9.148;2023-06-04T02:52:39;15.70;65.70
62581;DHT22;48640;48.770;9.148;2023-06-04T02:55:07;15.60;65.30
62581;DHT22;48640;48.770;9.148;2023-06-04T02:57:35;15.50;65.40
62581;DHT22;48640;48.770;9.148;2023-06-04T03:00:04;15.50;65.20
62581;DHT22;48640;48.770;9.148;2023-06-04T03:02:40;15.40;66.00
62581;DHT22;48640;48.770;9.148;2023-06-04T03:05:08;15.40;65.90
62581;DHT22;48640;48.770;9.148;2023-06-04T03:07:36;15.40;66.30
62581;DHT22;48640;48.770;9.148;2023-06-04T03:10:03;15.40;66.40
62581;DHT22;48640;48.770;9.148;2023-06-04T03:12:30;15.40;66.50
62581;DHT22;48640;48.770;9.148;2023-06-04T03:14:59;15.50;65.80
62581;DHT22;48640;48.770;9.148;2023-06-04T03:17:26;15.50;65.80
62581;DHT22;48640;48.770;9.148;2023-06-04T03:19:53;15.40;66.10
62581;DHT22;48640;48.770;9.148;2023-06-04T03:22:21;15.30;66.00
62581;DHT22;48640;48.770;9.148;2023-06-04T03:24:48;15.30;66.10
62581;DHT22;48640;48.770;9.148;2023-06-04T03:27:15;15.30;66.30
62581;DHT22;48640;48.770;9.148;2023-06-04T03:29:42;15.20;67.00
62581;DHT22;48640;48.770;9.148;2023-06-04T03:32:10;15.30;66.90
62581;DHT22;48640;48.770;9.148;2023-06-04T03:34:38;15.20;66.90
62581;DHT22;48640;48.770;9.148;2023-06-04T03:37:05;15.20;66.70
62581;DHT22;48640;48.770;9.148;2023-06-04T03:39:31;15.30;66.20
62581;DHT22;48640;48.770;9.148;2023-06-04T03:41:58;15.30;65.70
62581;DHT22;48640;48.770;9.148;2023-06-04T03:44:25;15.30;65.30
62581;DHT22;48640;48.770;9.148;2023-06-04T03:46:52;15.40;65.30
62581;DHT22;48640;48.770;9.148;2023-06-04T03:49:20;15.30;64.40
62581;DHT22;48640;48.770;9.148;2023-06-04T03:51:47;15.40;65.30
62581;DHT22;48640;48.770;9.148;2023-06-04T03:54:14;15.40;64.80
62581;DHT22;48640;48.770;9.148;2023-06-04T03:56:43;15.40;65.30
62581;DHT22;48640;48.770;9.148;2023-06-04T03:59:10;15.40;64.30
62581;DHT22;48640;48.770;9.148;2023-06-04T04:01:37;15.50;63.90
62581;DHT22;48640;48.770;9.148;2023-06-04T04:04:05;15.50;64.30
62581;DHT22;48640;48.770;9.148;2023-06-04T04:06:33;15.50;63.90
62581;DHT22;48640;48.770;9.148;2023-06-04T04:09:01;15.50;64.00
62581;DHT22;48640;48.770;9.148;2023-06-04T04:11:28;15.50;63.60
62581;DHT22;48640;48.770;9.148;2023-06-04T04:13:56;15.50;63.60
62581;DHT22;48640;48.770;9.148;2023-06-04T04:16:22;15.50;63.90
62581;DHT22;48640;48.770;9.148;2023-06-04T04:18:50;15.50;64.40
62581;DHT22;48640;48.770;9.148;2023-06-04T04:21:17;15.60;63.70
62581;DHT22;48640;48.770;9.148;2023-06-04T04:23:45;15.60;63.00
62581;DHT22;48640;48.770;9.148;2023-06-04T04:26:12;15.60;62.70
62581;DHT22;48640;48.770;9.148;2023-06-04T04:28:42;15.70;61.80
62581;DHT22;48640;48.770;9.148;2023-06-04T04:31:09;15.70;61.90
62581;DHT22;48640;48.770;9.148;2023-06-04T04:33:36;15.70;62.80
62581;DHT22;48640;48.770;9.148;2023-06-04T04:36:05;15.70;63.10
62581;DHT22;48640;48.770;9.148;2023-06-04T04:38:34;15.70;63.10
62581;DHT22;48640;48.770;9.148;2023-06-04T04:41:02;15.70;62.40
62581;DHT22;48640;48.770;9.148;2023-06-04T04:43:30;15.80;63.30
62581;DHT22;48640;48.770;9.148;2023-06-04T04:45:57;16.00;63.00
62581;DHT22;48640;48.770;9.148;2023-06-04T04:48:24;16.20;61.70
62581;DHT22;48640;48.770;9.148;2023-06-04T04:50:51;16.40;60.70
62581;DHT22;48640;48.770;9.148;2023-06-04T04:53:18;16.60;59.10
62581;DHT22;48640;48.770;9.148;2023-06-04T04:55:45;16.60;57.60
62581;DHT22;48640;48.770;9.148;2023-06-04T04:58:14;16.50;57.10
62581;DHT22;48640;48.770;9.148;2023-06-04T05:00:41;16.30;59.20
62581;DHT22;48640;48.770;9.148;2023-06-04T05:03:08;16.10;59.90
62581;DHT22;48640;48.770;9.148;2023-06-04T05:05:35;16.20;59.80
62581;DHT22;48640;48.770;9.148;2023-06-04T05:08:03;16.50;59.30
62581;DHT22;48640;48.770;9.148;2023-06-04T05:10:30;16.80;57.70
62581;DHT22;48640;48.770;9.148;2023-06-04T05:12:58;17.10;57.30
62581;DHT22;48640;48.770;9.148;2023-06-04T05:15:26;17.40;56.50
62581;DHT22;48640;48.770;9.148;2023-06-04T05:17:53;17.70;56.30
62581;DHT22;48640;48.770;9.148;2023-06-04T05:20:21;18.00;54.00
62581;DHT22;48640;48.770;9.148;2023-06-04T05:22:48;18.20;51.80
62581;DHT22;48640;48.770;9.148;2023-06-04T05:25:16;18.60;50.90
62581;DHT22;48640;48.770;9.148;2023-06-04T05:27:43;19.00;50.40
62581;DHT22;48640;48.770;9.148;2023-06-04T05:30:11;19.40;48.60
62581;DHT22;48640;48.770;9.148;2023-06-04T05:32:40;19.20;48.40
62581;DHT22;48640;48.770;9.148;2023-06-04T05:35:08;19.20;47.90
62581;DHT22;48640;48.770;9.148;2023-06-04T05:37:37;19.50;47.90
62581;DHT22;48640;48.770;9.148;2023-06-04T05:40:06;19.50;47.70
62581;DHT22;48640;48.770;9.148;2023-06-04T05:42:35;19.10;46.90
62581;DHT22;48640;48.770;9.148;2023-06-04T05:45:02;18.60;47.90
62581;DHT22;48640;48.770;9.148;2023-06-04T05:47:28;18.10;50.00
62581;DHT22;48640;48.770;9.148;2023-06-04T05:49:58;17.70;51.10
62581;DHT22;48640;48.770;9.148;2023-06-04T05:52:25;17.70;51.40
62581;DHT22;48640;48.770;9.148;2023-06-04T05:54:51;18.10;51.80
62581;DHT22;48640;48.770;9.148;2023-06-04T05:57:19;18.40;51.80
62581;DHT22;48640;48.770;9.148;2023-06-04T05:59:46;19.10;50.60
62581;DHT22;48640;48.770;9.148;2023-06-04T06:02:13;20.00;47.30
62581;DHT22;48640;48.770;9.148;2023-06-04T06:04:40;20.50;47.70
62581;DHT22;48640;48.770;9.148;2023-06-04T06:07:08;21.00;44.90
62581;DHT22;48640;48.770;9.148;2023-06-04T06:09:35;20.90;46.30
62581;DHT22;48640;48.770;9.148;2023-06-04T06:12:02;20.90;45.40
62581;DHT22;48640;48.770;9.148;2023-06-04T06:14:31;20.90;45.40
62581;DHT22;48640;48.770;9.148;2023-06-04T06:16:57;20.70;45.50
62581;DHT22;48640;48.770;9.148;2023-06-04T06:19:24;21.00;45.90
62581;DHT22;48640;48.770;9.148;2023-06-04T06:21:51;21.60;45.30
62581;DHT22;48640;48.770;9.148;2023-06-04T06:24:20;21.90;43.80
62581;DHT22;48640;48.770;9.148;2023-06-04T06:26:46;22.10;43.60
62581;DHT22;48640;48.770;9.148;2023-06-04T06:29:13;22.60;41.90
62581;DHT22;48640;48.770;9.148;2023-06-04T06:31:40;22.40;42.90
62581;DHT22;48640;48.770;9.148;2023-06-04T06:34:07;22.60;42.70
62581;DHT22;48640;48.770;9.148;2023-06-04T06:36:34;22.20;43.40
62581;DHT22;48640;48.770;9.148;2023-06-04T06:39:00;22.40;43.60
62581;DHT22;48640;48.770;9.148;2023-06-04T06:41:29;22.90;41.10
62581;DHT22;48640;48.770;9.148;2023-06-04T06:43:56;23.20;40.30
62581;DHT22;48640;48.770;9.148;2023-06-04T06:46:23;23.20;40.30
62581;DHT22;48640;48.770;9.148;2023-06-04T06:48:50;22.30;41.60
62581;DHT22;48640;48.770;9.148;2023-06-04T06:51:17;21.90;43.20
62581;DHT22;48640;48.770;9.148;2023-06-04T06:53:43;22.60;42.80
62581;DHT22;48640;48.770;9.148;2023-06-04T06:56:10;22.60;42.30
62581;DHT22;48640;48.770;9.148;2023-06-04T06:59:04;23.80;40.80
62581;DHT22;48640;48.770;9.148;2023-06-04T07:01:31;24.60;38.70
62581;DHT22;48640;48.770;9.148;2023-06-04T07:03:59;24.20;38.40
62581;DHT22;48640;48.770;9.148;2023-06-04T07:06:25;23.80;38.90
62581;DHT22;48640;48.770;9.148;2023-06-04T07:08:52;24.10;38.40
62581;DHT22;48640;48.770;9.148;2023-06-04T07:11:19;23.60;38.70
62581;DHT22;48640;48.770;9.148;2023-06-04T07:13:47;23.20;39.90
62581;DHT22;48640;48.770;9.148;2023-06-04T07:16:15;23.70;39.20
62581;DHT22;48640;48.770;9.148;2023-06-04T07:18:43;24.00;38.90
62581;DHT22;48640;48.770;9.148;2023-06-04T07:21:10;24.00;37.90
62581;DHT22;48640;48.770;9.148;2023-06-04T07:23:36;23.90;38.00
62581;DHT22;48640;48.770;9.148;2023-06-04T07:26:03;23.80;39.20
62581;DHT22;48640;48.770;9.148;2023-06-04T07:28:30;24.30;38.50
62581;DHT22;48640;48.770;9.148;2023-06-04T07:30:57;24.90;38.60
62581;DHT22;48640;48.770;9.148;2023-06-04T07:33:25;24.20;38.60
62581;DHT22;48640;48.770;9.148;2023-06-04T07:35:52;24.30;39.90
62581;DHT22;48640;48.770;9.148;2023-06-04T07:38:19;24.70;38.70
62581;DHT22;48640;48.770;9.148;2023-06-04T07:40:45;24.20;39.10
62581;DHT22;48640;48.770;9.148;2023-06-04T07:43:13;23.90;38.80
62581;DHT22;48640;48.770;9.148;2023-06-04T07:45:40;24.00;38.80
62581;DHT22;48640;48.770;9.148;2023-06-04T07:48:08;24.60;38.40
62581;DHT22;48640;48.770;9.148;2023-06-04T07:50:36;25.20;37.90
62581;DHT22;48640;48.770;9.148;2023-06-04T07:53:03;25.20;37.40
62581;DHT22;48640;48.770;9.148;2023-06-04T07:55:30;25.00;37.10
62581;DHT22;48640;48.770;9.148;2023-06-04T07:57:57;24.60;37.50
62581;DHT22;48640;48.770;9.148;2023-06-04T08:00:24;24.70;38.60
62581;DHT22;48640;48.770;9.148;2023-06-04T08:02:51;25.30;38.10
62581;DHT22;48640;48.770;9.148;2023-06-04T08:05:18;26.00;37.40
62581;DHT22;48640;48.770;9.148;2023-06-04T08:07:46;26.70;36.60
62581;DHT22;48640;48.770;9.148;2023-06-04T08:10:13;28.60;34.10
62581;DHT22;48640;48.770;9.148;2023-06-04T08:12:39;29.40;31.80
62581;DHT22;48640;48.770;9.148;2023-06-04T08:15:07;30.40;31.10
62581;DHT22;48640;48.770;9.148;2023-06-04T08:17:34;31.10;29.30
62581;DHT22;48640;48.770;9.148;2023-06-04T08:20:01;32.30;28.60
62581;DHT22;48640;48.770;9.148;2023-06-04T08:22:31;32.40;27.70
62581;DHT22;48640;48.770;9.148;2023-06-04T08:25:00;32.70;27.60
62581;DHT22;48640;48.770;9.148;2023-06-04T08:27:27;32.20;27.90
62581;DHT22;48640;48.770;9.148;2023-06-04T08:29:54;32.40;27.70
62581;DHT22;48640;48.770;9.148;2023-06-04T08:32:21;33.10;27.30
62581;DHT22;48640;48.770;9.148;2023-06-04T08:34:47;33.00;26.70
62581;DHT22;48640;48.770;9.148;2023-06-04T08:37:14;32.20;27.50
62581;DHT22;48640;48.770;9.148;2023-06-04T08:39:41;32.20;27.70
62581;DHT22;48640;48.770;9.148;2023-06-04T08:42:17;32.90;27.00
62581;DHT22;48640;48.770;9.148;2023-06-04T08:44:47;32.60;27.50
62581;DHT22;48640;48.770;9.148;2023-06-04T08:47:17;33.50;26.70
62581;DHT22;48640;48.770;9.148;2023-06-04T08:49:45;33.80;25.30
62581;DHT22;48640;48.770;9.148;2023-06-04T08:52:14;33.60;26.00
62581;DHT22;48640;48.770;9.148;2023-06-04T08:54:41;32.70;27.70
62581;DHT22;48640;48.770;9.148;2023-06-04T08:57:10;33.90;26.80
62581;DHT22;48640;48.770;9.148;2023-06-04T08:59:37;34.50;26.40
62581;DHT22;48640;48.770;9.148;2023-06-04T09:02:04;34.90;26.00
62581;DHT22;48640;48.770;9.148;2023-06-04T09:04:32;35.10;25.00
62581;DHT22;48640;48.770;9.148;2023-06-04T09:07:01;35.30;24.90
62581;DHT22;48640;48.770;9.148;2023-06-04T09:09:29;35.20;24.50
62581;DHT22;48640;48.770;9.148;2023-06-04T09:11:57;34.50;25.10
62581;DHT22;48640;48.770;9.148;2023-06-04T09:14:25;35.00;24.90
62581;DHT22;48640;48.770;9.148;2023-06-04T09:16:53;35.00;25.10
62581;DHT22;48640;48.770;9.148;2023-06-04T09:19:22;35.40;25.30
62581;DHT22;48640;48.770;9.148;2023-06-04T09:21:50;35.30;25.40
62581;DHT22;48640;48.770;9.148;2023-06-04T09:24:17;35.20;25.60
62581;DHT22;48640;48.770;9.148;2023-06-04T09:26:44;35.70;24.00
62581;DHT22;48640;48.770;9.148;2023-06-04T09:29:11;34.60;25.30
62581;DHT22;48640;48.770;9.148;2023-06-04T09:31:39;35.60;25.00
62581;DHT22;48640;48.770;9.148;2023-06-04T09:34:07;36.00;24.70
62581;DHT22;48640;48.770;9.148;2023-06-04T09:36:33;36.20;23.80
62581;DHT22;48640;48.770;9.148;2023-06-04T09:39:02;35.50;25.10
62581;DHT22;48640;48.770;9.148;2023-06-04T09:41:29;36.10;24.20
62581;DHT22;48640;48.770;9.148;2023-06-04T09:44:02;36.70;23.90
62581;DHT22;48640;48.770;9.148;2023-06-04T09:46:30;36.60;24.10
62581;DHT22;48640;48.770;9.148;2023-06-04T09:49:02;35.50;23.70
62581;DHT22;48640;48.770;9.148;2023-06-04T09:51:30;34.70;24.40
62581;DHT22;48640;48.770;9.148;2023-06-04T09:53:58;35.00;24.60
62581;DHT22;48640;48.770;9.148;2023-06-04T09:56:26;34.50;24.50
62581;DHT22;48640;48.770;9.148;2023-06-04T09:58:55;34.40;24.80
62581;DHT22;48640;48.770;9.148;2023-06-04T10:01:23;34.90;24.70
62581;DHT22;48640;48.770;9.148;2023-06-04T10:03:51;35.20;24.60
62581;DHT22;48640;48.770;9.148;2023-06-04T10:06:19;36.00;23.10
62581;DHT22;48640;48.770;9.148;2023-06-04T10:08:48;35.70;24.30
62581;DHT22;48640;48.770;9.148;2023-06-04T10:11:18;36.30;23.90
62581;DHT22;48640;48.770;9.148;2023-06-04T10:13:52;35.80;23.30
62581;DHT22;48640;48.770;9.148;2023-06-04T10:16:21;36.20;23.80
62581;DHT22;48640;48.770;9.148;2023-06-04T10:18:51;36.50;23.00
62581;DHT22;48640;48.770;9.148;2023-06-04T10:21:21;36.90;23.20
62581;DHT22;48640;48.770;9.148;2023-06-04T10:23:49;36.40;22.00
62581;DHT22;48640;48.770;9.148;2023-06-04T10:26:16;35.80;23.30
62581;DHT22;48640;48.770;9.148;2023-06-04T10:28:44;35.80;23.10
62581;DHT22;48640;48.770;9.148;2023-06-04T10:31:11;35.60;23.00
62581;DHT22;48640;48.770;9.148;2023-06-04T10:33:38;35.00;24.20
62581;DHT22;48640;48.770;9.148;2023-06-04T10:36:16;35.20;23.40
62581;DHT22;48640;48.770;9.148;2023-06-04T10:38:49;34.40;23.70
62581;DHT22;48640;48.770;9.148;2023-06-04T10:41:17;33.70;24.80
62581;DHT22;48640;48.770;9.148;2023-06-04T10:43:45;33.00;24.60
62581;DHT22;48640;48.770;9.148;2023-06-04T10:46:12;33.20;25.30
62581;DHT22;48640;48.770;9.148;2023-06-04T10:48:47;32.90;26.30
62581;DHT22;48640;48.770;9.148;2023-06-04T10:51:15;32.90;25.30
62581;DHT22;48640;48.770;9.148;2023-06-04T10:53:42;32.40;26.00
62581;DHT22;48640;48.770;9.148;2023-06-04T10:56:10;32.40;27.20
62581;DHT22;48640;48.770;9.148;2023-06-04T10:58:37;32.70;25.70
62581;DHT22;48640;48.770;9.148;2023-06-04T11:01:04;33.50;25.70
62581;DHT22;48640;48.770;9.148;2023-06-04T11:03:37;33.90;25.60
62581;DHT22;48640;48.770;9.148;2023-06-04T11:06:14;33.80;24.40
62581;DHT22;48640;48.770;9.148;2023-06-04T11:08:42;33.10;25.60
62581;DHT22;48640;48.770;9.148;2023-06-04T11:11:12;32.50;26.00
62581;DHT22;48640;48.770;9.148;2023-06-04T11:13:39;33.10;26.30
62581;DHT22;48640;48.770;9.148;2023-06-04T11:16:14;33.00;26.80
62581;DHT22;48640;48.770;9.148;2023-06-04T11:18:41;33.80;25.70
62581;DHT22;48640;48.770;9.148;2023-06-04T11:21:08;34.30;25.10
62581;DHT22;48640;48.770;9.148;2023-06-04T11:23:37;33.80;25.60
62581;DHT22;48640;48.770;9.148;2023-06-04T11:26:03;32.90;26.20
62581;DHT22;48640;48.770;9.148;2023-06-04T11:28:32;32.20;26.80
62581;DHT22;48640;48.770;9.148;2023-06-04T11:30:59;31.10;27.10
62581;DHT22;48640;48.770;9.148;2023-06-04T11:33:28;30.90;27.80
62581;DHT22;48640;48.770;9.148;2023-06-04T11:35:55;31.70;27.50
62581;DHT22;48640;48.770;9.148;2023-06-04T11:38:21;32.80;26.50
62581;DHT22;48640;48.770;9.148;2023-06-04T11:40:56;32.70;26.50
62581;DHT22;48640;48.770;9.148;2023-06-04T11:43:23;32.50;26.30
62581;DHT22;48640;48.770;9.148;2023-06-04T11:45:51;33.00;25.50
62581;DHT22;48640;48.770;9.148;2023-06-04T11:48:18;32.80;25.70
62581;DHT22;48640;48.770;9.148;2023-06-04T11:50:46;32.40;25.70
62581;DHT22;48640;48.770;9.148;2023-06-04T11:53:13;32.00;26.70
62581;DHT22;48640;48.770;9.148;2023-06-04T11:55:40;31.70;26.50
62581;DHT22;48640;48.770;9.148;2023-06-04T11:58:07;31.80;26.40
62581;DHT22;48640;48.770;9.148;2023-06-04T12:00:35;31.70;26.20
62581;DHT22;48640;48.770;9.148;2023-06-04T12:03:03;31.30;26.70
62581;DHT22;48640;48.770;9.148;2023-06-04T12:05:30;30.60;27.70
62581;DHT22;48640;48.770;9.148;2023-06-04T12:08:05;30.20;29.30
62581;DHT22;48640;48.770;9.148;2023-06-04T12:10:37;30.00;28.10
62581;DHT22;48640;48.770;9.148;2023-06-04T12:13:04;30.00;28.20
62581;DHT22;48640;48.770;9.148;2023-06-04T12:15:31;30.20;28.50
62581;DHT22;48640;48.770;9.148;2023-06-04T12:17:58;30.10;28.20
62581;DHT22;48640;48.770;9.148;2023-06-04T12:20:34;30.20;27.80
62581;DHT22;48640;48.770;9.148;2023-06-04T12:23:01;30.20;28.30
62581;DHT22;48640;48.770;9.148;2023-06-04T12:25:29;30.30;28.10
62581;DHT22;48640;48.770;9.148;2023-06-04T12:27:56;30.00;28.70
62581;DHT22;48640;48.770;9.148;2023-06-04T12:30:23;30.10;28.40
62581;DHT22;48640;48.770;9.148;2023-06-04T12:33:00;30.20;28.60
62581;DHT22;48640;48.770;9.148;2023-06-04T12:35:27;30.00;28.40
62581;DHT22;48640;48.770;9.148;2023-06-04T12:37:55;30.00;27.80
62581;DHT22;48640;48.770;9.148;2023-06-04T12:40:22;29.90;28.40
62581;DHT22;48640;48.770;9.148;2023-06-04T12:42:50;29.80;27.90
62581;DHT22;48640;48.770;9.148;2023-06-04T12:45:17;29.60;27.80
62581;DHT22;48640;48.770;9.148;2023-06-04T12:47:44;29.20;28.20
62581;DHT22;48640;48.770;9.148;2023-06-04T12:50:11;29.30;29.00
62581;DHT22;48640;48.770;9.148;2023-06-04T12:52:38;29.60;29.40
62581;DHT22;48640;48.770;9.148;2023-06-04T12:55:08;29.60;28.50
62581;DHT22;48640;48.770;9.148;2023-06-04T12:57:35;29.10;28.50
62581;DHT22;48640;48.770;9.148;2023-06-04T13:00:02;28.30;28.40
62581;DHT22;48640;48.770;9.148;2023-06-04T13:02:30;28.00;29.90
62581;DHT22;48640;48.770;9.148;2023-06-04T13:04:57;28.10;30.00
62581;DHT22;48640;48.770;9.148;2023-06-04T13:07:23;28.20;29.70
62581;DHT22;48640;48.770;9.148;2023-06-04T13:09:50;28.40;28.90
62581;DHT22;48640;48.770;9.148;2023-06-04T13:12:18;28.30;28.20
62581;DHT22;48640;48.770;9.148;2023-06-04T13:14:45;27.60;29.20
62581;DHT22;48640;48.770;9.148;2023-06-04T13:17:12;27.50;29.50
62581;DHT22;48640;48.770;9.148;2023-06-04T13:19:39;27.20;29.70
62581;DHT22;48640;48.770;9.148;2023-06-04T13:22:05;27.30;30.90
62581;DHT22;48640;48.770;9.148;2023-06-04T13:24:34;27.40;30.20
62581;DHT22;48640;48.770;9.148;2023-06-04T13:27:01;27.50;29.90
62581;DHT22;48640;48.770;9.148;2023-06-04T13:29:29;27.50;30.10
62581;DHT22;48640;48.770;9.148;2023-06-04T13:31:59;27.50;30.40
62581;DHT22;48640;48.770;9.148;2023-06-04T13:34:26;27.10;29.90
62581;DHT22;48640;48.770;9.148;2023-06-04T13:36:53;26.80;30.90
62581;DHT22;48640;48.770;9.148;2023-06-04T13:39:20;26.20;30.50
62581;DHT22;48640;48.770;9.148;2023-06-04T13:41:47;25.80;31.70
62581;DHT22;48640;48.770;9.148;2023-06-04T13:44:14;25.80;32.30
62581;DHT22;48640;48.770;9.148;2023-06-04T13:46:42;25.80;32.50
62581;DHT22;48640;48.770;9.148;2023-06-04T13:49:09;26.00;33.50
62581;DHT22;48640;48.770;9.148;2023-06-04T13:51:36;26.30;31.00
62581;DHT22;48640;48.770;9.148;2023-06-04T13:54:03;26.50;30.50
62581;DHT22;48640;48.770;9.148;2023-06-04T13:56:29;26.60;31.80
62581;DHT22;48640;48.770;9.148;2023-06-04T13:58:56;26.80;30.30
62581;DHT22;48640;48.770;9.148;2023-06-04T14:01:23;26.80;30.40
62581;DHT22;48640;48.770;9.148;2023-06-04T14:03:51;26.90;30.30
62581;DHT22;48640;48.770;9.148;2023-06-04T14:06:18;27.00;30.70
62581;DHT22;48640;48.770;9.148;2023-06-04T14:08:45;27.00;30.70
62581;DHT22;48640;48.770;9.148;2023-06-04T14:11:12;27.10;30.30
62581;DHT22;48640;48.770;9.148;2023-06-04T14:13:39;27.00;30.20
62581;DHT22;48640;48.770;9.148;2023-06-04T14:16:06;27.10;29.40
62581;DHT22;48640;48.770;9.148;2023-06-04T14:18:33;26.70;29.50
62581;DHT22;48640;48.770;9.148;2023-06-04T14:21:01;26.50;29.50
62581;DHT22;48640;48.770;9.148;2023-06-04T14:23:28;26.20;30.20
62581;DHT22;48640;48.770;9.148;2023-06-04T14:25:55;26.00;30.40
62581;DHT22;48640;48.770;9.148;2023-06-04T14:28:22;25.90;29.90
62581;DHT22;48640;48.770;9.148;2023-06-04T14:30:48;25.90;30.30
62581;DHT22;48640;48.770;9.148;2023-06-04T14:33:16;26.00;31.00
62581;DHT22;48640;48.770;9.148;2023-06-04T14:35:42;26.00;30.40
62581;DHT22;48640;48.770;9.148;2023-06-04T14:38:14;25.90;30.20
62581;DHT22;48640;48.770;9.148;2023-06-04T14:40:41;25.80;30.40
62581;DHT22;48640;48.770;9.148;2023-06-04T14:43:09;25.60;30.30
62581;DHT22;48640;48.770;9.148;2023-06-04T14:45:36;25.50;31.20
62581;DHT22;48640;48.770;9.148;2023-06-04T14:48:05;25.40;31.70
62581;DHT22;48640;48.770;9.148;2023-06-04T14:50:32;25.50;30.80
62581;DHT22;48640;48.770;9.148;2023-06-04T14:52:59;25.60;31.30
62581;DHT22;48640;48.770;9.148;2023-06-04T14:55:27;25.70;30.80
62581;DHT22;48640;48.770;9.148;2023-06-04T14:57:54;25.70;29.80
62581;DHT22;48640;48.770;9.148;2023-06-04T15:00:21;25.50;29.90
62581;DHT22;48640;48.770;9.148;2023-06-04T15:02:47;25.50;30.00
62581;DHT22;48640;48.770;9.148;2023-06-04T15:05:14;25.40;30.10
62581;DHT22;48640;48.770;9.148;2023-06-04T15:07:41;25.40;30.90
62581;DHT22;48640;48.770;9.148;2023-06-04T15:10:08;25.40;30.90
62581;DHT22;48640;48.770;9.148;2023-06-04T15:12:36;25.40;31.30
62581;DHT22;48640;48.770;9.148;2023-06-04T15:15:05;25.50;31.00
62581;DHT22;48640;48.770;9.148;2023-06-04T15:17:33;25.40;30.80
62581;DHT22;48640;48.770;9.148;2023-06-04T15:20:00;25.40;30.70
62581;DHT22;48640;48.770;9.148;2023-06-04T15:22:28;25.50;30.60
62581;DHT22;48640;48.770;9.148;2023-06-04T15:24:54;25.50;30.70
62581;DHT22;48640;48.770;9.148;2023-06-04T15:27:21;25.60;30.60
62581;DHT22;48640;48.770;9.148;2023-06-04T15:29:49;25.50;30.70
62581;DHT22;48640;48.770;9.148;2023-06-04T15:32:17;25.50;30.40
62581;DHT22;48640;48.770;9.148;2023-06-04T15:34:44;25.40;30.00